createdAt,value
2019-03-23T00:00:11.283Z,6.70
2019-03-23T00:02:42.062Z,6.70
2019-03-23T00:05:12.392Z,6.70
2019-03-23T00:07:41.538Z,6.70
2019-03-23T00:10:10.737Z,6.70
2019-03-23T00:12:39.973Z,6.70
2019-03-23T00:15:10.648Z,6.70
2019-03-23T00:17:39.842Z,6.80
2019-03-23T00:20:09.010Z,6.80
2019-03-23T00:22:38.190Z,6.70
2019-03-23T00:25:07.343Z,6.60
2019-03-23T00:27:37.590Z,6.60
2019-03-23T00:30:08.290Z,6.60
2019-03-23T00:32:37.455Z,6.50
2019-03-23T00:35:06.808Z,6.50
2019-03-23T00:37:36.807Z,6.50
2019-03-23T00:40:09.531Z,6.50
2019-03-23T00:42:38.738Z,6.50
2019-03-23T00:45:08.890Z,6.40
2019-03-23T00:47:38.083Z,6.40
2019-03-23T00:50:08.183Z,6.40
2019-03-23T00:52:37.336Z,6.40
2019-03-23T00:55:07.050Z,6.30
2019-03-23T00:57:36.216Z,6.30
2019-03-23T01:00:10.664Z,6.30
2019-03-23T01:02:41.695Z,6.30
2019-03-23T01:05:10.805Z,6.30
2019-03-23T01:07:39.995Z,6.30
2019-03-23T01:10:10.604Z,6.30
2019-03-23T01:12:39.764Z,6.30
2019-03-23T01:15:11.527Z,6.30
2019-03-23T01:17:40.688Z,6.40
2019-03-23T01:20:11.208Z,6.40
2019-03-23T01:22:40.440Z,6.40
2019-03-23T01:25:10.353Z,6.40
2019-03-23T01:27:39.529Z,6.40
2019-03-23T01:30:13.750Z,6.40
2019-03-23T01:32:42.987Z,6.40
2019-03-23T01:35:12.214Z,6.40
2019-03-23T01:37:41.429Z,6.40
2019-03-23T01:40:10.592Z,6.30
2019-03-23T01:42:39.775Z,6.40
2019-03-23T01:45:11.784Z,6.30
2019-03-23T01:47:41.019Z,6.30
2019-03-23T01:50:11.295Z,6.30
2019-03-23T01:52:40.487Z,6.30
2019-03-23T01:55:10.723Z,6.30
2019-03-23T01:57:39.899Z,6.30
2019-03-23T02:00:11.199Z,6.30
2019-03-23T02:02:40.390Z,6.20
2019-03-23T02:05:09.543Z,6.20
2019-03-23T02:07:38.727Z,6.20
2019-03-23T02:10:10.087Z,6.20
2019-03-23T02:12:39.352Z,6.20
2019-03-23T02:15:10.233Z,6.10
2019-03-23T02:17:40.390Z,6.10
2019-03-23T02:20:11.423Z,6.10
2019-03-23T02:22:40.666Z,6.10
2019-03-23T02:25:09.815Z,6.00
2019-03-23T02:27:38.965Z,6.10
2019-03-23T02:30:10.283Z,6.00
2019-03-23T02:32:39.552Z,6.00
2019-03-23T02:35:08.942Z,6.00
2019-03-23T02:37:38.345Z,6.00
2019-03-23T02:40:10.257Z,6.00
2019-03-23T02:42:39.424Z,6.00
2019-03-23T02:45:10.290Z,5.90
2019-03-23T02:47:39.513Z,6.00
2019-03-23T02:50:09.760Z,5.90
2019-03-23T02:52:38.983Z,5.80
2019-03-23T02:55:09.330Z,5.70
2019-03-23T02:57:38.565Z,5.70
2019-03-23T03:00:15.094Z,5.70
2019-03-23T03:02:44.445Z,5.80
2019-03-23T03:05:13.635Z,5.70
2019-03-23T03:07:43.813Z,5.70
2019-03-23T03:10:22.346Z,5.70
2019-03-23T03:12:51.505Z,5.70
2019-03-23T03:15:20.710Z,5.70
2019-03-23T03:17:49.897Z,5.70
2019-03-23T03:20:19.136Z,5.60
2019-03-23T03:22:48.333Z,5.70
2019-03-23T03:25:17.537Z,5.70
2019-03-23T03:27:46.973Z,5.70
2019-03-23T03:30:16.129Z,5.70
2019-03-23T03:32:45.347Z,5.60
2019-03-23T03:35:14.562Z,5.70
2019-03-23T03:37:56.024Z,5.70
2019-03-23T03:40:14.671Z,5.70
2019-03-23T03:42:43.885Z,5.70
2019-03-23T03:45:18.881Z,5.60
2019-03-23T03:47:48.033Z,5.50
2019-03-23T03:50:17.230Z,5.50
2019-03-23T03:52:46.396Z,5.40
2019-03-23T03:55:15.556Z,5.50
2019-03-23T03:57:45.855Z,5.40
2019-03-23T04:00:15.035Z,5.40
2019-03-23T04:02:44.214Z,5.30
2019-03-23T04:05:14.471Z,5.20
2019-03-23T04:07:43.704Z,5.20
2019-03-23T04:10:12.970Z,5.20
2019-03-23T04:12:42.180Z,5.20
2019-03-23T04:15:11.348Z,5.20
2019-03-23T04:17:40.614Z,5.20
2019-03-23T04:20:11.311Z,5.20
2019-03-23T04:22:40.486Z,5.20
2019-03-23T04:25:10.520Z,5.20
2019-03-23T04:27:39.721Z,5.20
2019-03-23T04:30:10.573Z,5.20
2019-03-23T04:32:40.956Z,5.20
2019-03-23T04:35:10.123Z,5.20
2019-03-23T04:37:39.451Z,5.20
2019-03-23T04:40:10.656Z,5.30
2019-03-23T04:42:39.913Z,5.30
2019-03-23T04:45:10.016Z,5.20
2019-03-23T04:47:40.167Z,5.20
2019-03-23T04:50:10.667Z,5.20
2019-03-23T04:52:39.851Z,5.20
2019-03-23T04:55:12.616Z,5.10
2019-03-23T04:57:41.882Z,5.10
2019-03-23T05:00:18.728Z,5.10
2019-03-23T05:02:47.903Z,5.00
2019-03-23T05:05:18.212Z,5.00
2019-03-23T05:07:47.461Z,5.00
2019-03-23T05:10:17.317Z,4.90
2019-03-23T05:12:46.607Z,4.90
2019-03-23T05:15:16.487Z,5.00
2019-03-23T05:17:45.752Z,5.00
2019-03-23T05:20:31.734Z,5.00
2019-03-23T05:23:00.987Z,5.00
2019-03-23T05:25:30.314Z,5.00
2019-03-23T05:27:59.494Z,5.00
2019-03-23T05:30:28.674Z,5.00
2019-03-23T05:32:57.911Z,5.00
2019-03-23T05:35:27.107Z,5.10
2019-03-23T05:37:56.264Z,5.00
2019-03-23T05:40:25.528Z,5.00
2019-03-23T05:42:54.748Z,5.10
2019-03-23T05:45:24.199Z,5.10
2019-03-23T05:47:53.361Z,5.10
2019-03-23T05:50:22.576Z,5.20
2019-03-23T05:52:51.733Z,5.20
2019-03-23T05:55:20.917Z,5.30
2019-03-23T05:57:50.085Z,5.30
2019-03-23T06:00:20.353Z,5.40
2019-03-23T06:02:49.527Z,5.50
2019-03-23T06:05:18.677Z,5.50
2019-03-23T06:07:47.899Z,5.50
2019-03-23T06:10:18.123Z,5.60
2019-03-23T06:12:47.325Z,5.70
2019-03-23T06:15:16.497Z,5.80
2019-03-23T06:17:45.728Z,5.90
2019-03-23T06:20:14.897Z,6.00
2019-03-23T06:22:44.120Z,6.00
2019-03-23T06:25:13.315Z,6.10
2019-03-23T06:27:42.485Z,6.20
2019-03-23T06:30:11.816Z,6.20
2019-03-23T06:32:40.962Z,6.30
2019-03-23T06:35:10.225Z,6.40
2019-03-23T06:37:39.478Z,6.50
2019-03-23T06:40:10.188Z,6.60
2019-03-23T06:42:40.422Z,6.70
2019-03-23T06:45:10.855Z,6.80
2019-03-23T06:47:40.012Z,6.90
2019-03-23T06:50:10.319Z,7.10
2019-03-23T06:52:39.543Z,7.20
2019-03-23T06:55:09.121Z,7.30
2019-03-23T06:57:38.389Z,7.40
2019-03-23T07:00:13.289Z,7.50
2019-03-23T07:02:42.482Z,7.70
2019-03-23T07:05:11.639Z,7.80
2019-03-23T07:07:40.936Z,8.00
2019-03-23T07:10:11.836Z,8.10
2019-03-23T07:12:41.093Z,8.20
2019-03-23T07:15:19.434Z,8.30
2019-03-23T07:17:42.273Z,8.50
2019-03-23T07:20:12.973Z,8.60
2019-03-23T07:22:44.187Z,8.80
2019-03-23T07:25:13.085Z,9.00
2019-03-23T07:27:42.259Z,9.10
2019-03-23T07:30:13.758Z,9.20
2019-03-23T07:32:43.017Z,9.50
2019-03-23T07:35:12.237Z,9.70
2019-03-23T07:37:41.688Z,9.90
2019-03-23T07:40:12.052Z,10.00
2019-03-23T07:42:41.450Z,10.20
2019-03-23T07:45:13.944Z,10.40
2019-03-23T07:47:43.238Z,10.50
2019-03-23T07:50:14.500Z,10.70
2019-03-23T07:52:43.738Z,10.80
2019-03-23T07:55:16.190Z,10.90
2019-03-23T07:57:45.373Z,11.10
2019-03-23T08:00:20.654Z,11.30
2019-03-23T08:02:49.924Z,11.60
2019-03-23T08:05:19.144Z,11.80
2019-03-23T08:07:48.310Z,12.20
2019-03-23T08:10:23.623Z,12.80
2019-03-23T08:12:52.850Z,14.30
2019-03-23T08:15:22.041Z,16.40
2019-03-23T08:17:51.201Z,17.60
2019-03-23T08:20:20.450Z,17.40
2019-03-23T08:22:49.712Z,16.80
2019-03-23T08:25:18.893Z,16.20
2019-03-23T08:27:48.071Z,15.50
2019-03-23T08:30:17.618Z,15.20
2019-03-23T08:32:46.843Z,15.40
2019-03-23T08:35:16.048Z,16.50
2019-03-23T08:37:45.201Z,18.80
2019-03-23T08:40:14.397Z,20.70
2019-03-23T08:42:43.577Z,21.90
2019-03-23T08:45:12.763Z,23.80
2019-03-23T08:47:41.997Z,24.40
2019-03-23T08:50:11.213Z,25.90
2019-03-23T08:52:40.423Z,26.90
2019-03-23T08:55:09.664Z,27.70
2019-03-23T08:57:41.263Z,27.10
2019-03-23T09:00:11.893Z,26.40
2019-03-23T09:02:41.137Z,25.80
2019-03-23T09:05:10.300Z,26.00
2019-03-23T09:07:39.495Z,26.20
2019-03-23T09:10:09.133Z,26.70
2019-03-23T09:12:38.325Z,26.30
2019-03-23T09:15:08.954Z,26.40
2019-03-23T09:17:38.166Z,27.10
2019-03-23T09:20:09.674Z,26.30
2019-03-23T09:22:38.901Z,26.00
2019-03-23T09:25:08.084Z,27.60
2019-03-23T09:27:37.364Z,27.20
2019-03-23T09:30:11.483Z,26.80
2019-03-23T09:32:40.643Z,26.60
2019-03-23T09:35:10.902Z,27.60
2019-03-23T09:37:40.052Z,29.00
2019-03-23T09:40:11.092Z,28.50
2019-03-23T09:42:40.371Z,28.80
2019-03-23T09:45:09.562Z,29.10
2019-03-23T09:47:38.804Z,28.30
2019-03-23T09:50:09.935Z,28.20
2019-03-23T09:52:39.175Z,28.70
2019-03-23T09:55:08.372Z,28.70
2019-03-23T09:57:37.554Z,28.90
2019-03-23T10:00:11.458Z,29.90
2019-03-23T10:02:40.627Z,30.20
2019-03-23T10:05:09.996Z,31.20
2019-03-23T10:07:39.658Z,31.50
2019-03-23T10:10:08.887Z,32.00
2019-03-23T10:12:38.104Z,31.20
2019-03-23T10:15:07.672Z,31.00
2019-03-23T10:17:37.087Z,30.40
2019-03-23T10:20:06.837Z,29.80
2019-03-23T10:22:37.683Z,29.00
2019-03-23T10:25:06.865Z,27.80
2019-03-23T10:27:36.041Z,28.00
2019-03-23T10:30:07.670Z,28.20
2019-03-23T10:32:36.957Z,28.70
2019-03-23T10:35:08.145Z,29.60
2019-03-23T10:37:37.378Z,29.40
2019-03-23T10:40:07.895Z,30.20
2019-03-23T10:42:37.138Z,30.60
2019-03-23T10:45:08.206Z,31.10
2019-03-23T10:47:37.603Z,30.20
2019-03-23T10:50:07.081Z,30.60
2019-03-23T10:52:37.914Z,30.40
2019-03-23T10:55:07.137Z,31.30
2019-03-23T10:57:36.314Z,32.00
2019-03-23T11:00:08.074Z,32.80
2019-03-23T11:02:37.933Z,33.10
2019-03-23T11:05:07.626Z,33.50
2019-03-23T11:07:36.803Z,33.20
2019-03-23T11:10:13.685Z,32.00
2019-03-23T11:12:43.002Z,30.30
2019-03-23T11:15:12.186Z,30.00
2019-03-23T11:17:41.520Z,30.90
2019-03-23T11:20:12.234Z,31.60
2019-03-23T11:22:41.398Z,32.60
2019-03-23T11:25:10.587Z,32.80
2019-03-23T11:27:39.753Z,32.60
2019-03-23T11:30:11.755Z,31.80
2019-03-23T11:32:40.979Z,31.40
2019-03-23T11:35:10.226Z,31.40
2019-03-23T11:37:39.882Z,31.10
2019-03-23T11:40:10.574Z,31.00
2019-03-23T11:42:49.377Z,31.00
2019-03-23T11:45:11.197Z,30.60
2019-03-23T11:47:40.362Z,32.20
2019-03-23T11:50:11.502Z,32.50
2019-03-23T11:52:40.676Z,31.80
2019-03-23T11:55:10.667Z,31.40
2019-03-23T11:57:39.897Z,31.10
2019-03-23T12:00:12.181Z,31.20
2019-03-23T12:02:41.335Z,31.80
2019-03-23T12:05:10.609Z,32.70
2019-03-23T12:07:39.772Z,32.70
2019-03-23T12:10:11.192Z,33.40
2019-03-23T12:12:41.461Z,34.10
2019-03-23T12:15:11.989Z,35.10
2019-03-23T12:17:41.156Z,33.50
2019-03-23T12:20:10.638Z,32.30
2019-03-23T12:22:39.915Z,30.10
2019-03-23T12:25:09.348Z,30.70
2019-03-23T12:27:38.596Z,31.10
2019-03-23T12:30:11.182Z,31.20
2019-03-23T12:32:40.357Z,31.20
2019-03-23T12:35:09.508Z,32.40
2019-03-23T12:37:38.735Z,32.60
2019-03-23T12:40:08.675Z,32.70
2019-03-23T12:42:37.855Z,33.10
2019-03-23T12:45:07.750Z,32.00
2019-03-23T12:47:36.942Z,31.80
2019-03-23T12:50:07.243Z,31.80
2019-03-23T12:52:36.425Z,31.80
2019-03-23T12:55:07.160Z,31.30
2019-03-23T12:57:36.434Z,31.60
2019-03-23T13:00:08.603Z,31.60
2019-03-23T13:02:37.778Z,32.10
2019-03-23T13:05:13.248Z,31.70
2019-03-23T13:07:43.024Z,32.20
2019-03-23T13:10:13.166Z,32.50
2019-03-23T13:12:42.419Z,32.80
2019-03-23T13:15:13.514Z,33.60
2019-03-23T13:17:43.813Z,33.50
2019-03-23T13:20:13.559Z,33.60
2019-03-23T13:22:43.959Z,33.50
2019-03-23T13:25:13.123Z,32.30
2019-03-23T13:27:42.404Z,31.90
2019-03-23T13:30:17.885Z,31.80
2019-03-23T13:32:47.081Z,31.50
2019-03-23T13:35:16.238Z,31.20
2019-03-23T13:37:45.483Z,31.20
2019-03-23T13:40:14.658Z,31.00
2019-03-23T13:42:43.834Z,31.30
2019-03-23T13:45:13.140Z,31.20
2019-03-23T13:47:42.391Z,31.60
2019-03-23T13:50:11.647Z,31.80
2019-03-23T13:52:40.870Z,31.40
2019-03-23T13:55:13.331Z,31.40
2019-03-23T13:57:42.558Z,31.60
2019-03-23T14:00:11.749Z,31.10
2019-03-23T14:02:40.983Z,30.80
2019-03-23T14:05:16.144Z,30.70
2019-03-23T14:07:42.060Z,30.60
2019-03-23T14:10:11.300Z,29.90
2019-03-23T14:12:40.546Z,29.90
2019-03-23T14:15:09.746Z,30.40
2019-03-23T14:17:38.982Z,30.20
2019-03-23T14:20:08.212Z,29.90
2019-03-23T14:22:37.412Z,30.80
2019-03-23T14:25:06.855Z,31.20
2019-03-23T14:27:36.051Z,31.80
2019-03-23T14:30:07.556Z,32.00
2019-03-23T14:32:36.740Z,32.20
2019-03-23T14:35:06.268Z,32.20
2019-03-23T14:37:35.547Z,31.80
2019-03-23T14:40:06.324Z,31.90
2019-03-23T14:42:36.033Z,32.00
2019-03-23T14:45:07.931Z,31.70
2019-03-23T14:47:37.149Z,32.10
2019-03-23T14:50:06.468Z,31.70
2019-03-23T14:52:35.617Z,30.40
2019-03-23T14:55:05.940Z,28.70
2019-03-23T14:57:35.110Z,26.20
2019-03-23T15:00:06.986Z,24.40
2019-03-23T15:02:36.215Z,23.40
2019-03-23T15:05:07.034Z,22.80
2019-03-23T15:07:37.358Z,22.50
2019-03-23T15:10:09.250Z,22.30
2019-03-23T15:12:38.417Z,22.00
2019-03-23T15:15:07.912Z,21.60
2019-03-23T15:17:37.077Z,21.30
2019-03-23T15:20:06.597Z,21.10
2019-03-23T15:22:35.757Z,21.10
2019-03-23T15:25:05.956Z,21.00
2019-03-23T15:27:35.158Z,20.80
2019-03-23T15:30:08.599Z,20.70
2019-03-23T15:32:37.832Z,20.60
2019-03-23T15:35:07.263Z,20.60
2019-03-23T15:37:36.446Z,20.30
2019-03-23T15:40:06.964Z,20.30
2019-03-23T15:42:36.224Z,20.20
2019-03-23T15:45:08.255Z,20.10
2019-03-23T15:47:37.497Z,19.90
2019-03-23T15:50:07.011Z,19.80
2019-03-23T15:52:36.205Z,19.90
2019-03-23T15:55:08.196Z,19.90
2019-03-23T15:57:37.450Z,19.90
2019-03-23T16:00:09.018Z,20.00
2019-03-23T16:02:38.323Z,20.00
2019-03-23T16:05:08.623Z,19.80
2019-03-23T16:07:38.030Z,19.70
2019-03-23T16:10:07.803Z,19.60
2019-03-23T16:12:38.200Z,19.40
2019-03-23T16:15:09.855Z,19.40
2019-03-23T16:17:39.045Z,19.40
2019-03-23T16:20:12.039Z,19.30
2019-03-23T16:22:41.418Z,19.10
2019-03-23T16:25:10.673Z,19.10
2019-03-23T16:27:39.947Z,19.10
2019-03-23T16:30:10.768Z,19.00
2019-03-23T16:32:40.145Z,19.00
2019-03-23T16:35:10.963Z,18.90
2019-03-23T16:37:40.141Z,18.80
2019-03-23T16:40:09.417Z,18.70
2019-03-23T16:42:45.286Z,18.60
2019-03-23T16:45:09.777Z,18.50
2019-03-23T16:47:39.005Z,18.50
2019-03-23T16:50:08.257Z,18.40
2019-03-23T16:52:38.171Z,18.30
2019-03-23T16:55:08.498Z,18.20
2019-03-23T16:57:37.690Z,18.10
2019-03-23T17:00:09.511Z,18.00
2019-03-23T17:02:38.739Z,18.00
2019-03-23T17:05:08.072Z,17.90
2019-03-23T17:07:37.263Z,17.80
2019-03-23T17:10:07.327Z,17.70
2019-03-23T17:12:36.606Z,17.70
2019-03-23T17:15:07.335Z,17.60
2019-03-23T17:17:37.484Z,17.50
2019-03-23T17:20:08.291Z,17.40
2019-03-23T17:22:37.450Z,17.30
2019-03-23T17:25:06.817Z,17.20
2019-03-23T17:27:36.031Z,17.20
2019-03-23T17:30:07.209Z,17.00
2019-03-23T17:32:39.213Z,17.00
2019-03-23T17:35:08.822Z,16.90
2019-03-23T17:37:38.090Z,16.80
2019-03-23T17:40:07.917Z,16.70
2019-03-23T17:42:37.086Z,16.60
2019-03-23T17:45:09.886Z,16.50
2019-03-23T17:47:39.311Z,16.40
2019-03-23T17:50:08.467Z,16.40
2019-03-23T17:52:40.663Z,16.30
2019-03-23T17:55:09.851Z,16.30
2019-03-23T17:57:39.127Z,16.20
2019-03-23T18:00:08.816Z,16.10
2019-03-23T18:02:38.244Z,16.10
2019-03-23T18:05:08.452Z,16.00
2019-03-23T18:07:37.781Z,15.90
2019-03-23T18:10:09.142Z,15.90
2019-03-23T18:12:38.535Z,15.80
2019-03-23T18:15:09.342Z,15.80
2019-03-23T18:17:38.567Z,15.70
2019-03-23T18:20:07.763Z,15.70
2019-03-23T18:22:36.987Z,15.60
2019-03-23T18:25:06.412Z,15.50
2019-03-23T18:27:35.615Z,15.40
2019-03-23T18:30:34.352Z,15.30
2019-03-23T18:33:04.723Z,15.20
2019-03-23T18:35:33.897Z,15.10
2019-03-23T18:38:03.325Z,15.10
2019-03-23T18:40:33.347Z,15.00
2019-03-23T18:43:02.531Z,14.90
2019-03-23T18:45:31.860Z,14.80
2019-03-23T18:48:01.120Z,14.70
2019-03-23T18:50:30.384Z,14.70
2019-03-23T18:52:59.803Z,14.60
2019-03-23T18:55:29.431Z,14.50
2019-03-23T18:57:59.170Z,14.50
2019-03-23T19:00:37.779Z,14.40
2019-03-23T19:03:07.188Z,14.30
2019-03-23T19:05:36.902Z,14.20
2019-03-23T19:08:06.291Z,14.10
2019-03-23T19:10:36.052Z,14.00
2019-03-23T19:13:06.243Z,13.80
2019-03-23T19:15:35.467Z,13.70
2019-03-23T19:18:04.706Z,13.60
2019-03-23T19:20:33.908Z,13.50
2019-03-23T19:23:03.073Z,13.50
2019-03-23T19:25:32.236Z,13.40
2019-03-23T19:28:01.453Z,13.40
2019-03-23T19:30:30.682Z,13.30
2019-03-23T19:33:00.124Z,13.20
2019-03-23T19:35:29.398Z,13.10
2019-03-23T19:37:59.129Z,13.00
2019-03-23T19:40:28.452Z,13.00
2019-03-23T19:42:59.563Z,12.90
2019-03-23T19:45:28.572Z,12.90
2019-03-23T19:47:57.739Z,12.80
2019-03-23T19:50:26.943Z,12.70
2019-03-23T19:52:56.168Z,12.50
2019-03-23T19:55:25.950Z,12.40
2019-03-23T19:57:55.118Z,12.20
2019-03-23T20:00:24.313Z,12.10
2019-03-23T20:02:53.550Z,12.10
2019-03-23T20:05:22.780Z,12.00
2019-03-23T20:07:52.089Z,12.00
2019-03-23T20:10:21.304Z,11.90
2019-03-23T20:12:50.556Z,11.90
2019-03-23T20:15:19.791Z,11.80
2019-03-23T20:17:48.995Z,11.70
2019-03-23T20:20:19.957Z,11.60
2019-03-23T20:22:49.548Z,11.50
2019-03-23T20:25:18.870Z,11.50
2019-03-23T20:27:48.019Z,11.50
2019-03-23T20:30:17.743Z,11.30
2019-03-23T20:32:47.095Z,11.20
2019-03-23T20:35:16.317Z,11.10
2019-03-23T20:37:45.484Z,11.00
2019-03-23T20:40:14.696Z,10.90
2019-03-23T20:42:44.061Z,10.80
2019-03-23T20:45:14.919Z,10.70
2019-03-23T20:47:44.256Z,10.70
2019-03-23T20:50:13.444Z,10.70
2019-03-23T20:52:42.683Z,10.60
2019-03-23T20:55:26.210Z,10.50
2019-03-23T20:57:55.552Z,10.50
2019-03-23T21:00:25.810Z,10.40
2019-03-23T21:02:55.076Z,10.40
2019-03-23T21:05:33.197Z,10.40
2019-03-23T21:07:55.353Z,10.30
2019-03-23T21:10:24.552Z,10.30
2019-03-23T21:12:53.807Z,10.30
2019-03-23T21:15:22.992Z,10.20
2019-03-23T21:17:52.301Z,10.10
2019-03-23T21:20:21.480Z,10.00
2019-03-23T21:22:50.696Z,9.90
2019-03-23T21:25:20.084Z,9.90
2019-03-23T21:27:49.350Z,9.80
2019-03-23T21:30:19.741Z,9.80
2019-03-23T21:32:49.010Z,9.80
2019-03-23T21:35:18.455Z,9.70
2019-03-23T21:37:47.715Z,9.70
2019-03-23T21:40:16.871Z,9.60
2019-03-23T21:42:46.095Z,9.60
2019-03-23T21:45:15.402Z,9.60
2019-03-23T21:47:44.546Z,9.50
2019-03-23T21:50:13.799Z,9.40
2019-03-23T21:52:42.951Z,9.40
2019-03-23T21:55:12.123Z,9.40
2019-03-23T21:57:41.442Z,9.30
2019-03-23T22:00:10.908Z,9.30
2019-03-23T22:02:40.773Z,9.30
2019-03-23T22:05:09.965Z,9.20
2019-03-23T22:07:39.156Z,9.30
2019-03-23T22:10:09.161Z,9.30
2019-03-23T22:12:38.399Z,9.30
2019-03-23T22:15:08.527Z,9.30
2019-03-23T22:17:37.706Z,9.20
2019-03-23T22:20:08.497Z,9.20
2019-03-23T22:22:37.749Z,9.00
2019-03-23T22:25:07.191Z,8.90
2019-03-23T22:27:37.290Z,8.90
2019-03-23T22:30:11.621Z,8.90
2019-03-23T22:32:40.873Z,8.90
2019-03-23T22:35:10.085Z,8.80
2019-03-23T22:37:39.341Z,8.70
2019-03-23T22:40:09.151Z,8.60
2019-03-23T22:42:38.403Z,8.60
2019-03-23T22:45:10.353Z,8.60
2019-03-23T22:47:39.619Z,8.60
2019-03-23T22:50:09.025Z,8.50
2019-03-23T22:52:38.203Z,8.50
2019-03-23T22:55:07.524Z,8.40
2019-03-23T22:57:36.703Z,8.40
2019-03-23T23:00:08.644Z,8.30
2019-03-23T23:02:37.994Z,8.20
2019-03-23T23:05:07.563Z,8.20
2019-03-23T23:07:36.807Z,8.10
2019-03-23T23:10:08.900Z,8.20
2019-03-23T23:12:38.083Z,8.20
2019-03-23T23:15:08.239Z,8.20
2019-03-23T23:17:37.488Z,8.20
2019-03-23T23:20:07.297Z,8.10
2019-03-23T23:22:38.080Z,8.10
2019-03-23T23:25:07.733Z,8.10
2019-03-23T23:27:37.285Z,8.00
2019-03-23T23:30:10.068Z,8.00
2019-03-23T23:32:39.390Z,8.00
2019-03-23T23:35:09.092Z,8.00
2019-03-23T23:37:38.274Z,8.00
2019-03-23T23:40:07.794Z,7.90
2019-03-23T23:42:36.952Z,7.80
2019-03-23T23:45:15.486Z,7.80
2019-03-23T23:47:38.920Z,7.70
2019-03-23T23:50:09.340Z,7.70
2019-03-23T23:52:38.581Z,7.60
2019-03-23T23:55:07.770Z,7.50
2019-03-23T23:57:37.028Z,7.50
